Terminal Aerodrome Forecast
Issued by NWS

Home | Current Version | Previous Version | Text Only | Print | Product List | Glossary On
Versions: 1 2 3 4 5 6 7 8 9 10 11 12 13 14 15 16 17 18 19 20 21 22 23
000
FTUS46 KSEW 221100
TAFOLM
TAF
KOLM 221120Z 2212/2312 18014G26KT P6SM -RA OVC045
     FM221700 19013G20KT 4SM -RA BR OVC030
     FM230700 23008KT P6SM OVC030=

USA.gov is the U.S. government's official web portal to all federal, state and local government web resources and services.